createdAt,value
2018-12-02T00:00:39.136Z,49.60
2018-12-02T00:01:39.231Z,29.00
2018-12-02T00:02:39.288Z,46.90
2018-12-02T00:03:39.362Z,43.20
2018-12-02T00:04:39.448Z,34.10
2018-12-02T00:05:39.525Z,34.80
2018-12-02T00:06:39.601Z,32.00
2018-12-02T00:07:39.666Z,28.80
2018-12-02T00:08:39.727Z,29.80
2018-12-02T00:09:39.821Z,23.20
2018-12-02T00:10:39.892Z,23.30
2018-12-02T00:11:39.973Z,23.80
2018-12-02T00:12:40.049Z,24.50
2018-12-02T00:13:40.116Z,23.30
2018-12-02T00:14:40.193Z,22.00
2018-12-02T00:15:40.264Z,26.20
2018-12-02T00:16:40.340Z,22.60
2018-12-02T00:17:40.410Z,26.50
2018-12-02T00:18:40.491Z,27.70
2018-12-02T00:19:40.558Z,29.10
2018-12-02T00:20:40.621Z,28.70
2018-12-02T00:21:40.725Z,24.80
2018-12-02T00:22:40.807Z,22.70
2018-12-02T00:23:40.860Z,26.30
2018-12-02T00:24:40.932Z,26.40
2018-12-02T00:25:41.025Z,28.50
2018-12-02T00:26:41.094Z,25.60
2018-12-02T00:27:41.163Z,27.20
2018-12-02T00:28:41.241Z,25.20
2018-12-02T00:29:41.313Z,25.30
2018-12-02T00:30:41.395Z,24.50
2018-12-02T00:31:41.469Z,22.90
2018-12-02T00:32:41.537Z,25.20
2018-12-02T00:33:41.607Z,22.20
2018-12-02T00:34:41.677Z,26.50
2018-12-02T00:35:41.760Z,20.20
2018-12-02T00:36:41.843Z,24.90
2018-12-02T00:37:41.918Z,20.50
2018-12-02T00:38:41.984Z,25.50
2018-12-02T00:39:42.061Z,23.80
2018-12-02T00:40:42.131Z,24.30
2018-12-02T00:41:42.225Z,23.90
2018-12-02T00:42:42.279Z,23.10
2018-12-02T00:43:42.347Z,21.80
2018-12-02T00:44:42.431Z,22.70
2018-12-02T00:45:42.501Z,24.60
2018-12-02T00:46:42.600Z,27.20
2018-12-02T00:47:42.679Z,24.70
2018-12-02T00:48:42.758Z,23.90
2018-12-02T00:49:42.826Z,24.70
2018-12-02T00:50:42.905Z,25.20
2018-12-02T00:51:42.989Z,25.80
2018-12-02T00:52:43.120Z,23.00
2018-12-02T00:53:43.136Z,25.00
2018-12-02T00:54:43.200Z,23.20
2018-12-02T00:55:43.275Z,23.40
2018-12-02T00:56:43.340Z,24.10
2018-12-02T00:57:43.432Z,22.90
2018-12-02T00:58:43.504Z,22.80
2018-12-02T00:59:43.577Z,27.10
2018-12-02T01:00:43.656Z,24.80
2018-12-02T01:01:43.735Z,21.00
2018-12-02T01:02:43.821Z,25.10
2018-12-02T01:03:43.889Z,24.90
2018-12-02T01:04:43.950Z,26.20
2018-12-02T01:05:44.027Z,27.40
2018-12-02T01:06:44.103Z,24.80
2018-12-02T01:07:44.218Z,23.60
2018-12-02T01:08:44.274Z,23.40
2018-12-02T01:09:44.339Z,24.80
2018-12-02T01:10:44.407Z,24.00
2018-12-02T01:11:44.487Z,22.70
2018-12-02T01:12:44.552Z,25.20
2018-12-02T01:13:44.640Z,22.00
2018-12-02T01:14:44.705Z,26.30
2018-12-02T01:15:44.776Z,26.90
2018-12-02T01:16:44.873Z,25.50
2018-12-02T01:17:44.935Z,24.80
2018-12-02T01:18:45.010Z,23.70
2018-12-02T01:19:45.083Z,24.50
2018-12-02T01:20:45.148Z,24.90
2018-12-02T01:21:45.221Z,26.10
2018-12-02T01:22:45.322Z,21.90
2018-12-02T01:23:45.373Z,25.70
2018-12-02T01:24:45.446Z,27.80
2018-12-02T01:25:45.531Z,26.70
2018-12-02T01:26:45.601Z,25.00
2018-12-02T01:27:45.687Z,22.20
2018-12-02T01:28:45.746Z,24.20
2018-12-02T01:29:45.820Z,24.50
2018-12-02T01:30:45.931Z,25.30
2018-12-02T01:31:45.978Z,24.00
2018-12-02T01:32:46.074Z,22.70
2018-12-02T01:33:46.144Z,24.70
2018-12-02T01:34:46.202Z,29.10
2018-12-02T01:35:46.276Z,22.90
2018-12-02T01:36:46.360Z,22.00
2018-12-02T01:37:46.441Z,24.00
2018-12-02T01:38:46.501Z,21.80
2018-12-02T01:39:46.580Z,23.10
2018-12-02T01:40:47.431Z,23.70
2018-12-02T01:41:48.308Z,26.40
2018-12-02T01:42:47.182Z,23.30
2018-12-02T01:43:47.252Z,25.10
2018-12-02T01:44:47.313Z,23.50
2018-12-02T01:45:47.398Z,24.60
2018-12-02T01:46:47.473Z,24.00
2018-12-02T01:47:47.566Z,21.60
2018-12-02T01:48:47.639Z,22.50
2018-12-02T01:49:47.695Z,24.40
2018-12-02T01:50:47.789Z,25.70
2018-12-02T01:51:47.859Z,24.70
2018-12-02T01:52:47.935Z,24.00
2018-12-02T01:53:47.997Z,28.30
2018-12-02T01:54:48.068Z,25.20
2018-12-02T01:55:48.155Z,24.50
2018-12-02T01:56:48.220Z,24.90
2018-12-02T01:57:48.303Z,21.00
2018-12-02T01:58:48.369Z,25.50
2018-12-02T01:59:48.443Z,23.00
2018-12-02T02:00:48.533Z,24.80
2018-12-02T02:01:48.585Z,24.90
2018-12-02T02:02:48.674Z,20.00
2018-12-02T02:03:48.741Z,21.90
2018-12-02T02:04:48.820Z,23.80
2018-12-02T02:05:48.889Z,22.00
2018-12-02T02:06:48.976Z,22.80
2018-12-02T02:07:49.056Z,20.10
2018-12-02T02:08:49.125Z,26.00
2018-12-02T02:09:49.192Z,23.10
2018-12-02T02:10:49.264Z,22.50
2018-12-02T02:11:49.349Z,22.80
2018-12-02T02:12:49.426Z,22.80
2018-12-02T02:13:49.497Z,24.30
2018-12-02T02:14:49.565Z,24.20
2018-12-02T02:15:49.649Z,21.40
2018-12-02T02:16:49.722Z,21.70
2018-12-02T02:17:49.809Z,24.80
2018-12-02T02:18:49.895Z,24.70
2018-12-02T02:19:49.962Z,21.80
2018-12-02T02:20:50.041Z,21.50
2018-12-02T02:21:50.105Z,21.00
2018-12-02T02:22:50.195Z,23.40
2018-12-02T02:23:50.273Z,23.30
2018-12-02T02:24:50.334Z,21.50
2018-12-02T02:25:50.405Z,22.70
2018-12-02T02:26:50.477Z,22.80
2018-12-02T02:27:50.554Z,22.90
2018-12-02T02:28:50.640Z,21.30
2018-12-02T02:29:50.701Z,25.00
2018-12-02T02:30:50.775Z,23.50
2018-12-02T02:31:50.849Z,22.00
2018-12-02T02:32:50.912Z,24.10
2018-12-02T02:33:51.012Z,20.70
2018-12-02T02:34:51.078Z,22.40
2018-12-02T02:35:51.148Z,22.10
2018-12-02T02:36:51.234Z,22.20
2018-12-02T02:37:51.306Z,22.70
2018-12-02T02:38:51.389Z,21.20
2018-12-02T02:39:51.448Z,21.90
2018-12-02T02:40:51.579Z,23.10
2018-12-02T02:41:51.596Z,22.00
2018-12-02T02:42:51.669Z,19.30
2018-12-02T02:43:51.805Z,23.00
2018-12-02T02:44:51.816Z,21.80
2018-12-02T02:45:51.897Z,19.70
2018-12-02T02:46:52.019Z,26.20
2018-12-02T02:47:52.041Z,21.70
2018-12-02T02:48:52.113Z,20.90
2018-12-02T02:49:52.187Z,22.60
2018-12-02T02:50:52.262Z,22.40
2018-12-02T02:51:52.386Z,24.10
2018-12-02T02:52:52.414Z,23.40
2018-12-02T02:53:52.518Z,21.40
2018-12-02T02:54:52.569Z,23.50
2018-12-02T02:55:52.633Z,24.40
2018-12-02T02:56:52.702Z,21.70
2018-12-02T02:57:52.820Z,21.20
2018-12-02T02:58:52.866Z,24.30
2018-12-02T02:59:52.947Z,25.50
2018-12-02T03:00:53.048Z,20.40
2018-12-02T03:01:53.088Z,20.70
2018-12-02T03:02:53.185Z,20.90
2018-12-02T03:03:53.246Z,23.60
2018-12-02T03:04:53.338Z,24.50
2018-12-02T03:05:53.482Z,23.00
2018-12-02T03:06:53.474Z,24.00
2018-12-02T03:07:53.543Z,22.30
2018-12-02T03:08:53.630Z,23.80
2018-12-02T03:09:53.703Z,23.90
2018-12-02T03:10:53.783Z,22.80
2018-12-02T03:11:53.893Z,24.00
2018-12-02T03:12:53.920Z,20.90
2018-12-02T03:13:53.999Z,21.60
2018-12-02T03:14:54.078Z,23.40
2018-12-02T03:15:54.145Z,24.60
2018-12-02T03:16:54.212Z,21.50
2018-12-02T03:17:54.364Z,21.00
2018-12-02T03:18:54.389Z,23.40
2018-12-02T03:19:54.483Z,23.70
2018-12-02T03:20:54.537Z,21.90
2018-12-02T03:21:54.634Z,21.20
2018-12-02T03:22:54.703Z,22.30
2018-12-02T03:23:54.775Z,20.20
2018-12-02T03:24:54.865Z,25.30
2018-12-02T03:25:54.920Z,22.90
2018-12-02T03:26:55.003Z,23.70
2018-12-02T03:27:55.071Z,22.10
2018-12-02T03:28:55.140Z,23.70
2018-12-02T03:29:55.227Z,26.30
2018-12-02T03:30:55.306Z,25.60
2018-12-02T03:31:55.395Z,22.10
2018-12-02T03:32:55.438Z,22.40
2018-12-02T03:33:55.527Z,22.10
2018-12-02T03:34:55.599Z,26.50
2018-12-02T03:35:55.689Z,20.60
2018-12-02T03:36:55.725Z,22.00
2018-12-02T03:37:55.809Z,22.90
2018-12-02T03:38:55.887Z,21.40
2018-12-02T03:39:55.971Z,22.30
2018-12-02T03:40:56.031Z,18.90
2018-12-02T03:41:56.113Z,20.10
2018-12-02T03:42:56.178Z,20.40
2018-12-02T03:43:56.254Z,24.10
2018-12-02T03:44:56.345Z,22.20
2018-12-02T03:45:56.404Z,21.20
2018-12-02T03:46:56.503Z,21.80
2018-12-02T03:47:56.560Z,22.80
2018-12-02T03:48:56.626Z,25.90
2018-12-02T03:49:56.719Z,21.60
2018-12-02T03:50:56.775Z,22.10
2018-12-02T03:51:56.849Z,22.60
2018-12-02T03:52:56.921Z,20.60
2018-12-02T03:53:56.995Z,24.60
2018-12-02T03:54:57.083Z,23.80
2018-12-02T03:55:57.149Z,23.10
2018-12-02T03:56:57.233Z,20.60
2018-12-02T03:57:57.303Z,22.30
2018-12-02T03:58:57.378Z,21.70
2018-12-02T03:59:57.455Z,22.50
2018-12-02T04:00:57.516Z,19.80
2018-12-02T04:01:57.593Z,20.60
2018-12-02T04:02:57.663Z,22.60
2018-12-02T04:03:57.746Z,19.70
2018-12-02T04:04:57.841Z,20.80
2018-12-02T04:05:57.905Z,19.70
2018-12-02T04:06:57.963Z,21.60
2018-12-02T04:07:58.047Z,23.30
2018-12-02T04:08:58.118Z,20.90
2018-12-02T04:09:58.215Z,23.30
2018-12-02T04:10:58.286Z,21.60
2018-12-02T04:11:58.344Z,19.20
2018-12-02T04:12:58.442Z,24.20
2018-12-02T04:13:58.491Z,21.40
2018-12-02T04:14:58.570Z,23.70
2018-12-02T04:15:58.663Z,20.50
2018-12-02T04:16:58.715Z,20.60
2018-12-02T04:17:58.791Z,20.20
2018-12-02T04:18:58.876Z,19.90
2018-12-02T04:19:58.953Z,22.80
2018-12-02T04:20:59.024Z,21.20
2018-12-02T04:21:59.101Z,20.40
2018-12-02T04:22:59.158Z,18.00
2018-12-02T04:23:59.239Z,21.00
2018-12-02T04:24:59.290Z,22.70
2018-12-02T04:25:59.388Z,20.50
2018-12-02T04:26:59.466Z,19.50
2018-12-02T04:27:59.529Z,22.30
2018-12-02T04:28:59.608Z,19.70
2018-12-02T04:29:59.689Z,19.00
2018-12-02T04:30:59.772Z,21.50
2018-12-02T04:31:59.840Z,18.50
2018-12-02T04:32:59.934Z,20.00
2018-12-02T04:33:59.974Z,18.70
2018-12-02T04:35:00.049Z,19.30
2018-12-02T04:36:00.151Z,19.20
2018-12-02T04:37:00.202Z,22.60
2018-12-02T04:38:00.276Z,19.00
2018-12-02T04:39:00.353Z,20.70
2018-12-02T04:40:00.431Z,18.50
2018-12-02T04:41:00.503Z,18.90
2018-12-02T04:42:00.574Z,18.60
2018-12-02T04:43:00.652Z,19.40
2018-12-02T04:44:00.744Z,19.00
2018-12-02T04:45:00.813Z,19.90
2018-12-02T04:46:00.896Z,19.60
2018-12-02T04:47:00.972Z,20.70
2018-12-02T04:48:01.034Z,21.00
2018-12-02T04:49:01.105Z,20.20
2018-12-02T04:50:01.202Z,18.70
2018-12-02T04:51:01.265Z,21.00
2018-12-02T04:52:01.337Z,20.90
2018-12-02T04:53:01.401Z,21.60
2018-12-02T04:54:01.486Z,23.50
2018-12-02T04:55:01.574Z,20.00
2018-12-02T04:56:01.644Z,18.20
2018-12-02T04:57:01.704Z,19.80
2018-12-02T04:58:01.774Z,21.60
2018-12-02T04:59:01.857Z,20.30
2018-12-02T05:00:01.933Z,20.70
2018-12-02T05:01:02.027Z,19.80
2018-12-02T05:02:02.080Z,19.60
2018-12-02T05:03:02.151Z,20.40
2018-12-02T05:04:02.221Z,16.90
2018-12-02T05:05:02.298Z,18.70
2018-12-02T05:06:02.393Z,17.40
2018-12-02T05:07:02.451Z,20.10
2018-12-02T05:08:02.519Z,17.70
2018-12-02T05:09:02.590Z,16.70
2018-12-02T05:10:02.666Z,18.40
2018-12-02T05:11:02.771Z,20.90
2018-12-02T05:12:02.820Z,19.90
2018-12-02T05:13:02.871Z,18.90
2018-12-02T05:14:02.967Z,18.10
2018-12-02T05:15:03.049Z,18.10
2018-12-02T05:16:03.124Z,18.40
2018-12-02T05:17:03.217Z,19.20
2018-12-02T05:18:03.263Z,17.10
2018-12-02T05:19:03.344Z,20.30
2018-12-02T05:20:03.417Z,17.50
2018-12-02T05:21:03.486Z,19.30
2018-12-02T05:22:03.570Z,18.50
2018-12-02T05:23:03.659Z,18.70
2018-12-02T05:24:03.716Z,17.90
2018-12-02T05:25:03.781Z,18.80
2018-12-02T05:26:03.862Z,17.70
2018-12-02T05:27:03.950Z,21.70
2018-12-02T05:28:04.022Z,17.90
2018-12-02T05:29:04.068Z,15.10
2018-12-02T05:30:04.161Z,19.80
2018-12-02T05:31:04.228Z,15.80
2018-12-02T05:32:04.312Z,16.30
2018-12-02T05:33:04.383Z,16.80
2018-12-02T05:34:04.459Z,17.40
2018-12-02T05:35:04.540Z,20.30
2018-12-02T05:36:04.604Z,16.30
2018-12-02T05:37:04.701Z,16.10
2018-12-02T05:38:04.756Z,17.50
2018-12-02T05:39:04.864Z,16.80
2018-12-02T05:40:04.906Z,16.10
2018-12-02T05:41:04.977Z,16.50
2018-12-02T05:42:05.074Z,16.50
2018-12-02T05:43:05.130Z,17.30
2018-12-02T05:44:05.203Z,17.10
2018-12-02T05:45:05.272Z,17.60
2018-12-02T05:46:05.365Z,16.70
2018-12-02T05:47:05.455Z,18.00
2018-12-02T05:48:05.528Z,15.70
2018-12-02T05:49:05.590Z,15.90
2018-12-02T05:50:05.661Z,15.80
2018-12-02T05:51:05.746Z,14.80
2018-12-02T05:52:05.816Z,15.80
2018-12-02T05:53:05.896Z,16.50
2018-12-02T05:54:05.962Z,18.30
2018-12-02T05:55:06.030Z,17.80
2018-12-02T05:56:06.109Z,18.60
2018-12-02T05:57:06.198Z,14.50
2018-12-02T05:58:06.260Z,15.30
2018-12-02T05:59:06.331Z,17.80
2018-12-02T06:00:06.414Z,17.60
2018-12-02T06:01:06.472Z,16.30
2018-12-02T06:02:06.573Z,17.50
2018-12-02T06:03:06.641Z,16.80
2018-12-02T06:04:06.711Z,16.50
2018-12-02T06:05:06.828Z,15.70
2018-12-02T06:06:06.858Z,16.50
2018-12-02T06:07:06.950Z,15.60
2018-12-02T06:08:07.027Z,15.10
2018-12-02T06:09:07.084Z,15.10
2018-12-02T06:10:07.153Z,15.60
2018-12-02T06:11:07.243Z,17.40
2018-12-02T06:12:07.318Z,17.40
2018-12-02T06:13:07.375Z,15.40
2018-12-02T06:14:07.463Z,16.40
2018-12-02T06:15:07.532Z,16.00
2018-12-02T06:16:07.600Z,17.30
2018-12-02T06:17:07.714Z,15.70
2018-12-02T06:18:07.765Z,16.40
2018-12-02T06:19:07.851Z,16.00
2018-12-02T06:20:07.924Z,18.00
2018-12-02T06:21:08.010Z,15.30
2018-12-02T06:22:08.088Z,14.50
2018-12-02T06:23:08.169Z,13.60
2018-12-02T06:24:08.222Z,17.00
2018-12-02T06:25:08.346Z,15.80
2018-12-02T06:26:08.371Z,15.50
2018-12-02T06:27:08.450Z,16.60
2018-12-02T06:28:08.540Z,18.10
2018-12-02T06:29:08.596Z,15.50
2018-12-02T06:30:08.675Z,16.70
2018-12-02T06:31:08.746Z,17.80
2018-12-02T06:32:08.825Z,16.40
2018-12-02T06:33:08.896Z,17.60
2018-12-02T06:34:08.962Z,17.30
2018-12-02T06:35:09.045Z,16.70
2018-12-02T06:36:09.169Z,17.10
2018-12-02T06:37:09.200Z,17.10
2018-12-02T06:38:09.278Z,17.60
2018-12-02T06:39:09.338Z,17.60
2018-12-02T06:40:09.419Z,17.40
2018-12-02T06:41:09.486Z,23.90
2018-12-02T06:42:09.558Z,16.20
2018-12-02T06:43:09.657Z,18.60
2018-12-02T06:44:09.718Z,17.20
2018-12-02T06:45:09.782Z,17.50
2018-12-02T06:46:09.866Z,17.40
2018-12-02T06:47:09.931Z,13.90
2018-12-02T06:48:10.022Z,15.90
2018-12-02T06:49:10.069Z,18.10
2018-12-02T06:50:10.155Z,15.00
2018-12-02T06:51:10.234Z,15.10
2018-12-02T06:52:10.340Z,15.40
2018-12-02T06:53:10.390Z,16.00
2018-12-02T06:54:10.451Z,18.10
2018-12-02T06:55:10.529Z,20.90
2018-12-02T06:56:10.607Z,16.20
2018-12-02T06:57:10.677Z,18.90
2018-12-02T06:58:10.773Z,17.00
2018-12-02T06:59:10.825Z,16.00
2018-12-02T07:00:10.924Z,17.10
2018-12-02T07:01:10.972Z,16.50
2018-12-02T07:02:11.049Z,16.20
2018-12-02T07:03:11.144Z,15.50
2018-12-02T07:04:11.209Z,15.10
2018-12-02T07:05:11.262Z,16.60
2018-12-02T07:06:11.357Z,16.90
2018-12-02T07:07:11.425Z,16.40
2018-12-02T07:08:11.511Z,15.90
2018-12-02T07:09:11.626Z,15.40
2018-12-02T07:10:11.643Z,18.10
2018-12-02T07:11:11.726Z,15.50
2018-12-02T07:12:11.796Z,16.60
2018-12-02T07:13:11.877Z,17.50
2018-12-02T07:14:11.938Z,16.90
2018-12-02T07:15:12.088Z,18.30
2018-12-02T07:16:12.095Z,17.90
2018-12-02T07:17:12.160Z,17.20
2018-12-02T07:18:12.305Z,21.90
2018-12-02T07:19:12.314Z,19.80
2018-12-02T07:20:12.391Z,19.60
2018-12-02T07:21:12.450Z,21.80
2018-12-02T07:22:12.532Z,23.40
2018-12-02T07:23:12.622Z,20.80
2018-12-02T07:24:12.686Z,20.00
2018-12-02T07:25:12.762Z,17.30
2018-12-02T07:26:12.853Z,17.20
2018-12-02T07:27:12.914Z,16.90
2018-12-02T07:28:12.998Z,17.10
2018-12-02T07:29:13.066Z,15.00
2018-12-02T07:30:13.136Z,16.40
2018-12-02T07:31:13.201Z,17.80
2018-12-02T07:32:13.294Z,15.40
2018-12-02T07:33:13.362Z,14.80
2018-12-02T07:34:13.429Z,15.10
2018-12-02T07:35:13.502Z,19.30
2018-12-02T07:36:13.575Z,16.80
2018-12-02T07:37:13.673Z,15.60
2018-12-02T07:38:13.766Z,16.20
2018-12-02T07:39:13.797Z,16.00
2018-12-02T07:40:13.886Z,13.50
2018-12-02T07:41:13.950Z,15.40
2018-12-02T07:42:14.025Z,16.20
2018-12-02T07:43:14.114Z,14.30
2018-12-02T07:44:14.183Z,16.60
2018-12-02T07:45:14.243Z,18.80
2018-12-02T07:46:14.320Z,16.00
2018-12-02T07:47:14.384Z,16.10
2018-12-02T07:48:14.480Z,18.70
2018-12-02T07:49:14.561Z,14.90
2018-12-02T07:50:14.629Z,14.60
2018-12-02T07:51:14.700Z,16.10
2018-12-02T07:52:14.775Z,15.50
2018-12-02T07:53:14.833Z,14.70
2018-12-02T07:54:14.929Z,15.10
2018-12-02T07:55:15.000Z,16.20
2018-12-02T07:56:15.073Z,16.60
2018-12-02T07:57:15.147Z,15.50
2018-12-02T07:58:15.224Z,14.60
2018-12-02T07:59:15.299Z,16.80
2018-12-02T08:00:15.394Z,15.60
2018-12-02T08:01:15.450Z,15.50
2018-12-02T08:02:15.513Z,16.10
2018-12-02T08:03:15.586Z,15.60
2018-12-02T08:04:15.676Z,14.40
2018-12-02T08:05:15.750Z,15.40
2018-12-02T08:06:15.816Z,15.10
2018-12-02T08:07:15.885Z,13.60
2018-12-02T08:08:15.962Z,13.70
2018-12-02T08:09:16.031Z,15.60
2018-12-02T08:10:16.100Z,15.70
2018-12-02T08:11:16.191Z,13.90
2018-12-02T08:12:16.266Z,15.20
2018-12-02T08:13:16.349Z,14.60
2018-12-02T08:14:16.419Z,16.50
2018-12-02T08:15:16.493Z,14.00
2018-12-02T08:16:16.572Z,14.40
2018-12-02T08:17:16.631Z,13.40
2018-12-02T08:18:16.708Z,19.10
2018-12-02T08:19:16.793Z,17.00
2018-12-02T08:20:16.866Z,15.20
2018-12-02T08:21:16.936Z,19.10
2018-12-02T08:22:17.036Z,15.70
2018-12-02T08:23:17.075Z,13.10
2018-12-02T08:24:17.172Z,15.40
2018-12-02T08:25:17.217Z,16.50
2018-12-02T08:26:17.298Z,16.50
2018-12-02T08:27:17.388Z,17.20
2018-12-02T08:28:17.448Z,19.40
2018-12-02T08:29:17.540Z,17.30
2018-12-02T08:30:17.604Z,18.20
2018-12-02T08:31:17.669Z,13.90
2018-12-02T08:32:17.736Z,14.60
2018-12-02T08:33:17.836Z,13.90
2018-12-02T08:34:17.905Z,14.80
2018-12-02T08:35:17.972Z,15.20
2018-12-02T08:36:18.064Z,14.80
2018-12-02T08:37:18.125Z,17.90
2018-12-02T08:38:18.250Z,14.70
2018-12-02T08:39:18.283Z,14.30
2018-12-02T08:40:18.355Z,16.50
2018-12-02T08:41:18.410Z,14.90
2018-12-02T08:42:18.497Z,15.70
2018-12-02T08:43:18.573Z,15.60
2018-12-02T08:44:18.675Z,13.80
2018-12-02T08:45:18.733Z,16.50
2018-12-02T08:46:18.803Z,15.40
2018-12-02T08:47:18.892Z,14.50
2018-12-02T08:48:18.957Z,15.50
2018-12-02T08:49:19.029Z,14.00
2018-12-02T08:50:19.099Z,15.30
2018-12-02T08:51:19.178Z,14.10
2018-12-02T08:52:19.259Z,16.80
2018-12-02T08:53:19.319Z,14.20
2018-12-02T08:54:19.405Z,15.10
2018-12-02T08:55:19.475Z,12.80
2018-12-02T08:56:19.549Z,13.50
2018-12-02T08:57:19.609Z,15.20
2018-12-02T08:58:19.707Z,13.80
2018-12-02T08:59:19.789Z,13.30
2018-12-02T09:00:19.852Z,14.30
2018-12-02T09:01:19.932Z,13.40
2018-12-02T09:02:19.998Z,15.50
2018-12-02T09:03:20.077Z,14.00
2018-12-02T09:04:20.160Z,16.00
2018-12-02T09:05:20.215Z,14.80
2018-12-02T09:06:20.295Z,14.60
2018-12-02T09:07:20.379Z,13.60
2018-12-02T09:08:20.456Z,13.30
2018-12-02T09:09:20.539Z,13.60
2018-12-02T09:10:20.599Z,16.90
2018-12-02T09:11:20.676Z,14.60
2018-12-02T09:12:20.752Z,14.50
2018-12-02T09:13:20.821Z,14.00
2018-12-02T09:14:20.909Z,14.70
2018-12-02T09:15:20.988Z,15.70
2018-12-02T09:16:21.042Z,16.30
2018-12-02T09:17:21.131Z,14.50
2018-12-02T09:18:21.197Z,15.20
2018-12-02T09:19:21.285Z,15.90
2018-12-02T09:20:21.365Z,13.60
2018-12-02T09:21:21.414Z,16.20
2018-12-02T09:22:21.488Z,14.40
2018-12-02T09:23:21.572Z,14.50
2018-12-02T09:24:21.668Z,17.10
2018-12-02T09:25:21.719Z,13.50
2018-12-02T09:26:21.804Z,13.40
2018-12-02T09:27:21.870Z,14.80
2018-12-02T09:28:21.944Z,16.20
2018-12-02T09:29:22.026Z,14.90
2018-12-02T09:30:22.093Z,12.90
2018-12-02T09:31:22.168Z,13.70
2018-12-02T09:32:22.245Z,15.80
2018-12-02T09:33:22.318Z,14.30
2018-12-02T09:34:22.411Z,15.50
2018-12-02T09:35:22.490Z,16.40
2018-12-02T09:36:22.535Z,14.50
2018-12-02T09:37:22.612Z,15.40
2018-12-02T09:38:22.687Z,24.50
2018-12-02T09:39:22.783Z,18.40
2018-12-02T09:40:22.847Z,24.40
2018-12-02T09:41:22.911Z,17.20
2018-12-02T09:42:22.993Z,15.30
2018-12-02T09:43:23.062Z,19.40
2018-12-02T09:44:23.143Z,23.60
2018-12-02T09:45:23.202Z,16.10
2018-12-02T09:46:23.301Z,14.30
2018-12-02T09:47:23.361Z,17.50
2018-12-02T09:48:23.434Z,14.50
2018-12-02T09:49:23.513Z,13.00
2018-12-02T09:50:23.582Z,14.30
2018-12-02T09:51:23.673Z,14.60
2018-12-02T09:52:23.729Z,14.60
2018-12-02T09:53:23.803Z,14.80
2018-12-02T09:54:23.880Z,14.60
2018-12-02T09:55:23.970Z,14.70
2018-12-02T09:56:24.027Z,15.00
2018-12-02T09:57:24.142Z,15.20
2018-12-02T09:58:24.199Z,14.00
2018-12-02T09:59:24.271Z,13.30
2018-12-02T10:00:24.355Z,13.30
2018-12-02T10:01:24.407Z,13.80
2018-12-02T10:02:24.509Z,14.60
2018-12-02T10:03:24.575Z,17.30
2018-12-02T10:04:24.649Z,14.30
2018-12-02T10:05:24.739Z,13.70
2018-12-02T10:06:24.801Z,13.00
2018-12-02T10:07:24.876Z,15.30
2018-12-02T10:08:24.952Z,14.30
2018-12-02T10:09:25.054Z,13.10
2018-12-02T10:10:25.099Z,13.10
2018-12-02T10:11:25.177Z,13.50
2018-12-02T10:12:25.256Z,14.70
2018-12-02T10:13:25.334Z,13.90
2018-12-02T10:14:25.405Z,14.30
2018-12-02T10:15:25.487Z,16.50
2018-12-02T10:16:25.575Z,14.80
2018-12-02T10:17:25.619Z,18.70
2018-12-02T10:18:25.695Z,15.50
2018-12-02T10:19:25.775Z,17.70
2018-12-02T10:20:25.855Z,17.40
2018-12-02T10:21:25.927Z,15.90
2018-12-02T10:22:26.001Z,18.00
2018-12-02T10:23:26.070Z,19.30
2018-12-02T10:24:26.133Z,19.60
2018-12-02T10:25:26.233Z,18.00
2018-12-02T10:26:26.294Z,13.90
2018-12-02T10:27:26.367Z,14.00
2018-12-02T10:28:26.443Z,14.30
2018-12-02T10:29:26.516Z,16.00
2018-12-02T10:30:26.980Z,12.90
2018-12-02T10:31:26.667Z,17.00
2018-12-02T10:32:26.751Z,12.90
2018-12-02T10:33:26.806Z,13.10
2018-12-02T10:34:26.886Z,14.30
2018-12-02T10:35:26.973Z,13.00
2018-12-02T10:36:27.046Z,14.50
2018-12-02T10:37:27.164Z,11.80
2018-12-02T10:38:27.181Z,12.20
2018-12-02T10:39:27.291Z,12.40
2018-12-02T10:40:27.336Z,12.70
2018-12-02T10:41:27.407Z,12.90
2018-12-02T10:42:27.488Z,12.00
2018-12-02T10:43:27.570Z,13.40
2018-12-02T10:44:27.657Z,12.30
2018-12-02T10:45:27.723Z,11.90
2018-12-02T10:46:27.806Z,12.30
2018-12-02T10:47:27.863Z,13.40
2018-12-02T10:48:27.953Z,14.10
2018-12-02T10:49:28.005Z,11.30
2018-12-02T10:50:28.094Z,12.40
2018-12-02T10:51:28.161Z,13.10
2018-12-02T10:52:28.244Z,12.30
2018-12-02T10:53:28.316Z,12.60
2018-12-02T10:54:29.319Z,11.70
2018-12-02T10:55:28.513Z,12.80
2018-12-02T10:56:28.585Z,12.50
2018-12-02T10:57:28.658Z,14.70
2018-12-02T10:58:28.729Z,15.20
2018-12-02T10:59:28.855Z,12.70
2018-12-02T11:00:28.895Z,10.00
2018-12-02T11:01:28.949Z,12.10
2018-12-02T11:02:29.026Z,12.40
2018-12-02T11:03:29.100Z,13.00
2018-12-02T11:04:29.178Z,11.90
2018-12-02T11:05:29.247Z,11.20
2018-12-02T11:06:29.321Z,11.10
2018-12-02T11:07:29.408Z,11.20
2018-12-02T11:08:29.466Z,12.70
2018-12-02T11:09:29.550Z,11.60
2018-12-02T11:10:29.635Z,10.90
2018-12-02T11:11:30.994Z,11.30
2018-12-02T11:12:31.148Z,10.30
2018-12-02T11:13:30.073Z,12.10
2018-12-02T11:14:30.152Z,11.00
2018-12-02T11:15:30.232Z,11.60
2018-12-02T11:16:30.310Z,12.30
2018-12-02T11:17:30.373Z,12.50
2018-12-02T11:18:30.445Z,11.60
2018-12-02T11:19:30.521Z,11.40
2018-12-02T11:20:30.603Z,12.20
2018-12-02T11:21:30.667Z,13.40
2018-12-02T11:22:30.741Z,10.90
2018-12-02T11:23:30.815Z,11.90
2018-12-02T11:24:30.894Z,11.50
2018-12-02T11:25:30.983Z,11.10
2018-12-02T11:26:31.049Z,11.90
2018-12-02T11:27:31.120Z,12.40
2018-12-02T11:28:31.191Z,12.20
2018-12-02T11:29:31.267Z,11.80
2018-12-02T11:30:31.353Z,10.20
2018-12-02T11:31:31.442Z,12.70
2018-12-02T11:32:31.499Z,12.20
2018-12-02T11:33:31.565Z,13.80
2018-12-02T11:34:31.685Z,14.60
2018-12-02T11:35:31.729Z,14.60
2018-12-02T11:36:31.795Z,14.90
2018-12-02T11:37:31.895Z,17.10
2018-12-02T11:38:31.934Z,13.60
2018-12-02T11:39:32.020Z,13.60
2018-12-02T11:40:32.127Z,13.10
2018-12-02T11:41:32.178Z,12.80
2018-12-02T11:42:32.234Z,11.90
2018-12-02T11:43:32.354Z,11.10
2018-12-02T11:44:32.391Z,9.00
2018-12-02T11:45:32.459Z,12.70
2018-12-02T11:46:32.585Z,10.70
2018-12-02T11:47:32.647Z,11.50
2018-12-02T11:48:32.731Z,9.80
2018-12-02T11:49:32.799Z,9.80
2018-12-02T11:50:32.870Z,10.10
2018-12-02T11:51:32.997Z,11.60
2018-12-02T11:52:33.020Z,9.70
2018-12-02T11:53:33.085Z,9.90
2018-12-02T11:54:33.215Z,10.70
2018-12-02T11:55:33.248Z,8.60
2018-12-02T11:56:33.332Z,10.30
2018-12-02T11:57:33.410Z,11.40
2018-12-02T11:58:33.472Z,9.10
2018-12-02T11:59:33.542Z,9.70
2018-12-02T12:00:33.619Z,8.70
2018-12-02T12:01:33.699Z,10.10
2018-12-02T12:02:33.769Z,10.80
2018-12-02T12:03:33.841Z,10.40
2018-12-02T12:04:33.915Z,11.50
2018-12-02T12:05:33.996Z,10.20
2018-12-02T12:06:34.078Z,8.70
2018-12-02T12:07:34.136Z,12.30
2018-12-02T12:08:34.222Z,10.00
2018-12-02T12:09:34.273Z,12.20
2018-12-02T12:10:34.357Z,9.20
2018-12-02T12:11:34.448Z,14.30
2018-12-02T12:12:34.507Z,10.20
2018-12-02T12:13:34.580Z,9.90
2018-12-02T12:14:34.665Z,13.50
2018-12-02T12:15:34.757Z,27.50
2018-12-02T12:16:34.812Z,22.10
2018-12-02T12:17:34.880Z,19.60
2018-12-02T12:18:34.975Z,49.60
2018-12-02T12:19:35.030Z,15.10
2018-12-02T12:20:35.103Z,12.00
2018-12-02T12:21:35.185Z,11.20
2018-12-02T12:22:35.255Z,13.10
2018-12-02T12:23:35.362Z,10.40
2018-12-02T12:24:35.401Z,11.30
2018-12-02T12:25:35.455Z,10.10
2018-12-02T12:26:35.559Z,10.30
2018-12-02T12:27:35.625Z,9.10
2018-12-02T12:28:35.698Z,8.60
2018-12-02T12:29:35.817Z,9.60
2018-12-02T12:30:35.847Z,9.60
2018-12-02T12:31:35.932Z,9.20
2018-12-02T12:32:35.992Z,9.80
2018-12-02T12:33:36.105Z,10.90
2018-12-02T12:34:36.203Z,10.50
2018-12-02T12:35:36.204Z,8.80
2018-12-02T12:36:36.295Z,9.70
2018-12-02T12:37:36.365Z,14.00
2018-12-02T12:38:36.435Z,13.40
2018-12-02T12:39:36.507Z,13.10
2018-12-02T12:40:36.592Z,11.30
2018-12-02T12:41:36.662Z,8.50
2018-12-02T12:42:36.729Z,8.50
2018-12-02T12:43:36.810Z,8.80
2018-12-02T12:44:36.889Z,9.90
2018-12-02T12:45:36.961Z,8.40
2018-12-02T12:46:37.040Z,8.90
2018-12-02T12:47:37.106Z,9.50
2018-12-02T12:48:37.181Z,10.70
2018-12-02T12:49:37.262Z,9.50
2018-12-02T12:50:37.323Z,8.10
2018-12-02T12:51:39.793Z,8.50
2018-12-02T12:52:37.479Z,8.50
2018-12-02T12:53:37.552Z,8.70
2018-12-02T12:54:37.627Z,9.90